sensor_id;sensor_type;location;lat;lon;timestamp;temperature;humidity
1381;DHT22;684;48.342;10.096;2023-04-15T00:00:09;6.90;25.30
1381;DHT22;684;48.342;10.096;2023-04-15T00:02:36;6.90;25.50
1381;DHT22;684;48.342;10.096;2023-04-15T00:05:03;6.90;25.60
1381;DHT22;684;48.342;10.096;2023-04-15T00:07:30;6.90;25.50
1381;DHT22;684;48.342;10.096;2023-04-15T00:09:57;6.90;25.10
1381;DHT22;684;48.342;10.096;2023-04-15T00:12:24;6.90;25.10
1381;DHT22;684;48.342;10.096;2023-04-15T00:14:53;7.00;24.80
1381;DHT22;684;48.342;10.096;2023-04-15T00:17:21;7.00;24.90
1381;DHT22;684;48.342;10.096;2023-04-15T00:19:48;7.00;24.90
1381;DHT22;684;48.342;10.096;2023-04-15T00:22:15;7.00;25.70
1381;DHT22;684;48.342;10.096;2023-04-15T00:24:41;6.90;25.30
1381;DHT22;684;48.342;10.096;2023-04-15T00:27:08;6.90;25.10
1381;DHT22;684;48.342;10.096;2023-04-15T00:29:35;6.90;25.20
1381;DHT22;684;48.342;10.096;2023-04-15T00:32:03;6.90;25.30
1381;DHT22;684;48.342;10.096;2023-04-15T00:34:30;6.90;25.50
1381;DHT22;684;48.342;10.096;2023-04-15T00:36:57;6.80;25.50
1381;DHT22;684;48.342;10.096;2023-04-15T00:39:25;6.80;26.00
1381;DHT22;684;48.342;10.096;2023-04-15T00:41:52;6.80;26.60
1381;DHT22;684;48.342;10.096;2023-04-15T00:44:19;6.70;26.90
1381;DHT22;684;48.342;10.096;2023-04-15T00:46:46;6.70;27.20
1381;DHT22;684;48.342;10.096;2023-04-15T00:49:14;6.70;28.20
1381;DHT22;684;48.342;10.096;2023-04-15T00:51:42;6.70;27.70
1381;DHT22;684;48.342;10.096;2023-04-15T00:54:09;6.60;27.80
1381;DHT22;684;48.342;10.096;2023-04-15T00:56:37;6.60;27.80
1381;DHT22;684;48.342;10.096;2023-04-15T00:59:05;6.60;28.20
1381;DHT22;684;48.342;10.096;2023-04-15T01:01:33;6.60;28.50
1381;DHT22;684;48.342;10.096;2023-04-15T01:04:01;6.60;28.30
1381;DHT22;684;48.342;10.096;2023-04-15T01:06:30;6.60;28.30
1381;DHT22;684;48.342;10.096;2023-04-15T01:08:57;6.60;28.10
1381;DHT22;684;48.342;10.096;2023-04-15T01:11:24;6.60;28.10
1381;DHT22;684;48.342;10.096;2023-04-15T01:13:52;6.60;28.00
1381;DHT22;684;48.342;10.096;2023-04-15T01:16:21;6.60;27.90
1381;DHT22;684;48.342;10.096;2023-04-15T01:18:48;6.60;28.00
1381;DHT22;684;48.342;10.096;2023-04-15T01:21:15;6.60;28.00
1381;DHT22;684;48.342;10.096;2023-04-15T01:23:44;6.50;28.50
1381;DHT22;684;48.342;10.096;2023-04-15T01:26:13;6.60;28.20
1381;DHT22;684;48.342;10.096;2023-04-15T01:28:41;6.60;28.30
1381;DHT22;684;48.342;10.096;2023-04-15T01:31:09;6.60;28.40
1381;DHT22;684;48.342;10.096;2023-04-15T01:33:37;6.60;28.30
1381;DHT22;684;48.342;10.096;2023-04-15T01:36:05;6.50;28.30
1381;DHT22;684;48.342;10.096;2023-04-15T01:38:33;6.50;28.60
1381;DHT22;684;48.342;10.096;2023-04-15T01:41:00;6.50;28.50
1381;DHT22;684;48.342;10.096;2023-04-15T01:43:29;6.40;28.70
1381;DHT22;684;48.342;10.096;2023-04-15T01:45:56;6.40;28.90
1381;DHT22;684;48.342;10.096;2023-04-15T01:48:22;6.40;29.10
1381;DHT22;684;48.342;10.096;2023-04-15T01:50:49;6.30;29.40
1381;DHT22;684;48.342;10.096;2023-04-15T01:53:16;6.30;29.60
1381;DHT22;684;48.342;10.096;2023-04-15T01:55:43;6.30;29.70
1381;DHT22;684;48.342;10.096;2023-04-15T01:58:10;6.30;29.80
1381;DHT22;684;48.342;10.096;2023-04-15T02:00:38;6.20;29.90
1381;DHT22;684;48.342;10.096;2023-04-15T02:03:04;6.20;29.80
1381;DHT22;684;48.342;10.096;2023-04-15T02:05:31;6.20;29.90
1381;DHT22;684;48.342;10.096;2023-04-15T02:07:58;6.20;29.70
1381;DHT22;684;48.342;10.096;2023-04-15T02:10:25;6.20;29.90
1381;DHT22;684;48.342;10.096;2023-04-15T02:12:52;6.20;30.00
1381;DHT22;684;48.342;10.096;2023-04-15T02:15:19;6.20;30.80
1381;DHT22;684;48.342;10.096;2023-04-15T02:17:47;6.10;30.40
1381;DHT22;684;48.342;10.096;2023-04-15T02:20:15;6.20;30.30
1381;DHT22;684;48.342;10.096;2023-04-15T02:22:42;6.20;30.20
1381;DHT22;684;48.342;10.096;2023-04-15T02:25:09;6.20;30.10
1381;DHT22;684;48.342;10.096;2023-04-15T02:27:36;6.10;30.10
1381;DHT22;684;48.342;10.096;2023-04-15T02:30:03;6.10;30.20
1381;DHT22;684;48.342;10.096;2023-04-15T02:32:30;6.10;30.30
1381;DHT22;684;48.342;10.096;2023-04-15T02:35:01;6.10;30.30
1381;DHT22;684;48.342;10.096;2023-04-15T02:37:28;6.00;30.30
1381;DHT22;684;48.342;10.096;2023-04-15T02:39:56;6.00;30.50
1381;DHT22;684;48.342;10.096;2023-04-15T02:42:22;6.00;30.40
1381;DHT22;684;48.342;10.096;2023-04-15T02:44:52;5.90;30.40
1381;DHT22;684;48.342;10.096;2023-04-15T02:47:19;5.90;30.90
1381;DHT22;684;48.342;10.096;2023-04-15T02:49:46;5.90;30.20
1381;DHT22;684;48.342;10.096;2023-04-15T02:52:14;5.90;30.10
1381;DHT22;684;48.342;10.096;2023-04-15T02:54:41;5.80;30.10
1381;DHT22;684;48.342;10.096;2023-04-15T02:57:08;5.80;30.10
1381;DHT22;684;48.342;10.096;2023-04-15T02:59:36;5.80;30.30
1381;DHT22;684;48.342;10.096;2023-04-15T03:02:03;5.80;30.30
1381;DHT22;684;48.342;10.096;2023-04-15T03:04:32;5.70;30.40
1381;DHT22;684;48.342;10.096;2023-04-15T03:06:59;5.70;30.40
1381;DHT22;684;48.342;10.096;2023-04-15T03:09:27;5.70;30.30
1381;DHT22;684;48.342;10.096;2023-04-15T03:11:54;5.70;30.20
1381;DHT22;684;48.342;10.096;2023-04-15T03:14:21;5.70;30.50
1381;DHT22;684;48.342;10.096;2023-04-15T03:16:48;5.70;30.40
1381;DHT22;684;48.342;10.096;2023-04-15T03:19:16;5.70;30.80
1381;DHT22;684;48.342;10.096;2023-04-15T03:21:43;5.70;31.00
1381;DHT22;684;48.342;10.096;2023-04-15T03:24:10;5.70;30.90
1381;DHT22;684;48.342;10.096;2023-04-15T03:26:38;5.70;30.70
1381;DHT22;684;48.342;10.096;2023-04-15T03:29:05;5.70;30.90
1381;DHT22;684;48.342;10.096;2023-04-15T03:31:31;5.70;30.80
1381;DHT22;684;48.342;10.096;2023-04-15T03:33:58;5.70;30.90
1381;DHT22;684;48.342;10.096;2023-04-15T03:36:25;5.70;30.90
1381;DHT22;684;48.342;10.096;2023-04-15T03:38:52;5.60;30.90
1381;DHT22;684;48.342;10.096;2023-04-15T03:41:19;5.60;30.90
1381;DHT22;684;48.342;10.096;2023-04-15T03:43:47;5.60;30.80
1381;DHT22;684;48.342;10.096;2023-04-15T03:46:16;5.60;30.50
1381;DHT22;684;48.342;10.096;2023-04-15T03:48:43;5.60;30.40
1381;DHT22;684;48.342;10.096;2023-04-15T03:51:10;5.60;30.30
1381;DHT22;684;48.342;10.096;2023-04-15T03:53:36;5.50;30.20
1381;DHT22;684;48.342;10.096;2023-04-15T03:56:04;5.50;30.20
1381;DHT22;684;48.342;10.096;2023-04-15T03:58:31;5.50;30.30
1381;DHT22;684;48.342;10.096;2023-04-15T04:00:59;5.50;30.20
1381;DHT22;684;48.342;10.096;2023-04-15T04:03:25;5.40;30.10
1381;DHT22;684;48.342;10.096;2023-04-15T04:05:52;5.40;30.20
1381;DHT22;684;48.342;10.096;2023-04-15T04:08:19;5.40;30.20
1381;DHT22;684;48.342;10.096;2023-04-15T04:10:46;5.40;30.20
1381;DHT22;684;48.342;10.096;2023-04-15T04:13:13;5.30;30.30
1381;DHT22;684;48.342;10.096;2023-04-15T04:15:39;5.30;30.40
1381;DHT22;684;48.342;10.096;2023-04-15T04:18:08;5.30;30.30
1381;DHT22;684;48.342;10.096;2023-04-15T04:20:34;5.30;30.30
1381;DHT22;684;48.342;10.096;2023-04-15T04:23:01;5.20;30.20
1381;DHT22;684;48.342;10.096;2023-04-15T04:25:28;5.20;30.20
1381;DHT22;684;48.342;10.096;2023-04-15T04:27:54;5.20;30.30
1381;DHT22;684;48.342;10.096;2023-04-15T04:30:21;5.20;30.40
1381;DHT22;684;48.342;10.096;2023-04-15T04:32:49;5.20;30.50
1381;DHT22;684;48.342;10.096;2023-04-15T04:35:17;5.10;30.50
1381;DHT22;684;48.342;10.096;2023-04-15T04:37:43;5.10;30.50
1381;DHT22;684;48.342;10.096;2023-04-15T04:40:11;5.10;30.70
1381;DHT22;684;48.342;10.096;2023-04-15T04:42:38;5.10;30.80
1381;DHT22;684;48.342;10.096;2023-04-15T04:45:05;5.10;30.80
1381;DHT22;684;48.342;10.096;2023-04-15T04:47:33;5.10;30.90
1381;DHT22;684;48.342;10.096;2023-04-15T04:49:59;5.10;31.50
1381;DHT22;684;48.342;10.096;2023-04-15T04:52:27;5.10;30.80
1381;DHT22;684;48.342;10.096;2023-04-15T04:54:54;5.10;30.60
1381;DHT22;684;48.342;10.096;2023-04-15T04:57:21;5.10;30.50
1381;DHT22;684;48.342;10.096;2023-04-15T04:59:48;5.10;30.50
1381;DHT22;684;48.342;10.096;2023-04-15T05:02:14;5.10;30.60
1381;DHT22;684;48.342;10.096;2023-04-15T05:04:41;5.20;30.60
1381;DHT22;684;48.342;10.096;2023-04-15T05:07:08;5.20;30.30
1381;DHT22;684;48.342;10.096;2023-04-15T05:09:36;5.20;30.30
1381;DHT22;684;48.342;10.096;2023-04-15T05:12:03;5.20;30.20
1381;DHT22;684;48.342;10.096;2023-04-15T05:14:30;5.20;30.20
1381;DHT22;684;48.342;10.096;2023-04-15T05:16:57;5.20;30.30
1381;DHT22;684;48.342;10.096;2023-04-15T05:19:24;5.30;30.30
1381;DHT22;684;48.342;10.096;2023-04-15T05:21:51;5.40;30.10
1381;DHT22;684;48.342;10.096;2023-04-15T05:24:17;5.50;30.00
1381;DHT22;684;48.342;10.096;2023-04-15T05:26:45;5.70;29.80
1381;DHT22;684;48.342;10.096;2023-04-15T05:29:12;5.80;29.40
1381;DHT22;684;48.342;10.096;2023-04-15T05:31:39;6.00;29.20
1381;DHT22;684;48.342;10.096;2023-04-15T05:34:06;6.10;28.90
1381;DHT22;684;48.342;10.096;2023-04-15T05:36:33;6.40;28.60
1381;DHT22;684;48.342;10.096;2023-04-15T05:39:00;6.50;28.30
1381;DHT22;684;48.342;10.096;2023-04-15T05:41:26;6.70;27.90
1381;DHT22;684;48.342;10.096;2023-04-15T05:43:55;6.80;27.40
1381;DHT22;684;48.342;10.096;2023-04-15T05:46:22;7.00;26.70
1381;DHT22;684;48.342;10.096;2023-04-15T05:48:48;7.10;26.20
1381;DHT22;684;48.342;10.096;2023-04-15T05:51:16;7.30;25.70
1381;DHT22;684;48.342;10.096;2023-04-15T05:53:42;7.40;25.00
1381;DHT22;684;48.342;10.096;2023-04-15T05:56:10;7.60;24.30
1381;DHT22;684;48.342;10.096;2023-04-15T05:58:37;7.70;23.70
1381;DHT22;684;48.342;10.096;2023-04-15T06:01:05;7.80;23.10
1381;DHT22;684;48.342;10.096;2023-04-15T06:03:32;7.90;22.80
1381;DHT22;684;48.342;10.096;2023-04-15T06:05:59;7.90;22.60
1381;DHT22;684;48.342;10.096;2023-04-15T06:08:26;8.00;22.40
1381;DHT22;684;48.342;10.096;2023-04-15T06:10:53;8.00;22.10
1381;DHT22;684;48.342;10.096;2023-04-15T06:13:19;8.10;21.80
1381;DHT22;684;48.342;10.096;2023-04-15T06:15:46;8.00;21.40
1381;DHT22;684;48.342;10.096;2023-04-15T06:18:15;8.00;21.20
1381;DHT22;684;48.342;10.096;2023-04-15T06:20:41;8.00;21.20
1381;DHT22;684;48.342;10.096;2023-04-15T06:23:08;7.90;21.20
1381;DHT22;684;48.342;10.096;2023-04-15T06:25:35;7.90;21.20
1381;DHT22;684;48.342;10.096;2023-04-15T06:28:02;8.00;21.30
1381;DHT22;684;48.342;10.096;2023-04-15T06:30:29;8.00;21.40
1381;DHT22;684;48.342;10.096;2023-04-15T06:32:55;8.10;21.50
1381;DHT22;684;48.342;10.096;2023-04-15T06:35:24;8.20;21.30
1381;DHT22;684;48.342;10.096;2023-04-15T06:37:51;8.30;21.20
1381;DHT22;684;48.342;10.096;2023-04-15T06:40:18;8.50;21.10
1381;DHT22;684;48.342;10.096;2023-04-15T06:42:45;8.80;21.30
1381;DHT22;684;48.342;10.096;2023-04-15T06:45:12;9.60;20.50
1381;DHT22;684;48.342;10.096;2023-04-15T06:47:38;10.50;18.50
1381;DHT22;684;48.342;10.096;2023-04-15T06:50:06;11.10;16.90
1381;DHT22;684;48.342;10.096;2023-04-15T06:52:35;11.80;15.10
1381;DHT22;684;48.342;10.096;2023-04-15T06:55:03;12.90;13.40
1381;DHT22;684;48.342;10.096;2023-04-15T06:57:30;14.90;10.70
1381;DHT22;684;48.342;10.096;2023-04-15T06:59:57;17.10;6.50
1381;DHT22;684;48.342;10.096;2023-04-15T07:02:24;19.20;2.50
1381;DHT22;684;48.342;10.096;2023-04-15T07:04:50;21.20;1.00
1381;DHT22;684;48.342;10.096;2023-04-15T07:07:17;22.80;1.00
1381;DHT22;684;48.342;10.096;2023-04-15T07:09:45;23.80;1.00
1381;DHT22;684;48.342;10.096;2023-04-15T07:12:12;24.70;1.00
1381;DHT22;684;48.342;10.096;2023-04-15T07:14:39;25.90;1.00
1381;DHT22;684;48.342;10.096;2023-04-15T07:17:07;27.40;1.00
1381;DHT22;684;48.342;10.096;2023-04-15T07:19:34;28.00;1.00
1381;DHT22;684;48.342;10.096;2023-04-15T07:22:01;27.40;1.00
1381;DHT22;684;48.342;10.096;2023-04-15T07:24:28;26.50;1.00
1381;DHT22;684;48.342;10.096;2023-04-15T07:26:57;26.20;1.00
1381;DHT22;684;48.342;10.096;2023-04-15T07:29:24;27.30;1.00
1381;DHT22;684;48.342;10.096;2023-04-15T07:31:51;27.90;1.00
1381;DHT22;684;48.342;10.096;2023-04-15T07:34:18;27.50;1.00
1381;DHT22;684;48.342;10.096;2023-04-15T07:36:45;26.80;1.00
1381;DHT22;684;48.342;10.096;2023-04-15T07:39:15;25.90;1.00
1381;DHT22;684;48.342;10.096;2023-04-15T07:41:42;25.00;1.00
1381;DHT22;684;48.342;10.096;2023-04-15T07:44:10;24.00;1.00
1381;DHT22;684;48.342;10.096;2023-04-15T07:46:37;23.30;1.00
1381;DHT22;684;48.342;10.096;2023-04-15T07:49:03;22.60;1.00
1381;DHT22;684;48.342;10.096;2023-04-15T07:51:30;21.80;1.00
1381;DHT22;684;48.342;10.096;2023-04-15T07:53:57;21.20;1.00
1381;DHT22;684;48.342;10.096;2023-04-15T07:56:24;21.20;1.00
1381;DHT22;684;48.342;10.096;2023-04-15T07:58:51;22.70;1.00
1381;DHT22;684;48.342;10.096;2023-04-15T08:01:19;24.40;1.00
1381;DHT22;684;48.342;10.096;2023-04-15T08:03:46;25.60;1.00
1381;DHT22;684;48.342;10.096;2023-04-15T08:06:13;26.60;1.00
1381;DHT22;684;48.342;10.096;2023-04-15T08:08:39;28.20;1.00
1381;DHT22;684;48.342;10.096;2023-04-15T08:11:07;29.90;1.00
1381;DHT22;684;48.342;10.096;2023-04-15T08:13:34;30.70;1.00
1381;DHT22;684;48.342;10.096;2023-04-15T08:16:17;31.20;1.00
1381;DHT22;684;48.342;10.096;2023-04-15T08:18:46;30.60;1.00
1381;DHT22;684;48.342;10.096;2023-04-15T08:21:13;29.80;1.00
1381;DHT22;684;48.342;10.096;2023-04-15T08:23:40;30.10;1.00
1381;DHT22;684;48.342;10.096;2023-04-15T08:26:08;31.40;1.00
1381;DHT22;684;48.342;10.096;2023-04-15T08:28:37;33.20;1.00
1381;DHT22;684;48.342;10.096;2023-04-15T08:31:04;33.90;1.00
1381;DHT22;684;48.342;10.096;2023-04-15T08:33:31;33.50;1.00
1381;DHT22;684;48.342;10.096;2023-04-15T08:35:59;32.50;1.00
1381;DHT22;684;48.342;10.096;2023-04-15T08:38:25;31.10;1.00
1381;DHT22;684;48.342;10.096;2023-04-15T08:40:52;29.50;1.00
1381;DHT22;684;48.342;10.096;2023-04-15T08:43:21;28.10;1.00
1381;DHT22;684;48.342;10.096;2023-04-15T08:45:49;26.90;1.00
1381;DHT22;684;48.342;10.096;2023-04-15T08:48:17;26.10;1.00
1381;DHT22;684;48.342;10.096;2023-04-15T08:50:45;26.20;1.00
1381;DHT22;684;48.342;10.096;2023-04-15T08:53:14;26.50;1.00
1381;DHT22;684;48.342;10.096;2023-04-15T08:55:43;26.30;1.00
1381;DHT22;684;48.342;10.096;2023-04-15T08:58:11;26.30;1.00
1381;DHT22;684;48.342;10.096;2023-04-15T09:00:38;26.30;1.00
1381;DHT22;684;48.342;10.096;2023-04-15T09:03:06;26.70;1.00
1381;DHT22;684;48.342;10.096;2023-04-15T09:05:33;27.80;1.00
1381;DHT22;684;48.342;10.096;2023-04-15T09:08:01;30.00;1.00
1381;DHT22;684;48.342;10.096;2023-04-15T09:10:30;30.90;1.00
1381;DHT22;684;48.342;10.096;2023-04-15T09:12:57;30.10;1.00
1381;DHT22;684;48.342;10.096;2023-04-15T09:15:24;29.30;1.00
1381;DHT22;684;48.342;10.096;2023-04-15T09:17:53;29.80;1.00
1381;DHT22;684;48.342;10.096;2023-04-15T09:20:21;30.70;1.00
1381;DHT22;684;48.342;10.096;2023-04-15T09:22:49;31.10;1.00
1381;DHT22;684;48.342;10.096;2023-04-15T09:25:30;30.90;1.00
1381;DHT22;684;48.342;10.096;2023-04-15T09:27:58;31.10;1.00
1381;DHT22;684;48.342;10.096;2023-04-15T09:30:26;32.50;1.00
1381;DHT22;684;48.342;10.096;2023-04-15T09:32:56;34.50;1.00
1381;DHT22;684;48.342;10.096;2023-04-15T09:35:24;35.30;1.00
1381;DHT22;684;48.342;10.096;2023-04-15T09:37:52;34.70;1.00
1381;DHT22;684;48.342;10.096;2023-04-15T09:40:32;33.80;1.00
1381;DHT22;684;48.342;10.096;2023-04-15T09:42:59;33.70;1.00
1381;DHT22;684;48.342;10.096;2023-04-15T09:45:26;34.90;1.00
1381;DHT22;684;48.342;10.096;2023-04-15T09:47:53;35.80;1.00
1381;DHT22;684;48.342;10.096;2023-04-15T09:50:20;34.90;1.00
1381;DHT22;684;48.342;10.096;2023-04-15T09:52:47;33.20;1.00
1381;DHT22;684;48.342;10.096;2023-04-15T09:55:16;31.50;1.00
1381;DHT22;684;48.342;10.096;2023-04-15T09:57:45;29.90;1.00
1381;DHT22;684;48.342;10.096;2023-04-15T10:00:13;28.40;1.00
1381;DHT22;684;48.342;10.096;2023-04-15T10:02:41;27.00;1.00
1381;DHT22;684;48.342;10.096;2023-04-15T10:05:09;25.90;1.00
1381;DHT22;684;48.342;10.096;2023-04-15T10:07:38;24.90;1.00
1381;DHT22;684;48.342;10.096;2023-04-15T10:10:07;24.00;1.00
1381;DHT22;684;48.342;10.096;2023-04-15T10:12:36;23.20;1.00
1381;DHT22;684;48.342;10.096;2023-04-15T10:15:05;22.60;1.00
1381;DHT22;684;48.342;10.096;2023-04-15T10:17:35;22.10;1.00
1381;DHT22;684;48.342;10.096;2023-04-15T10:20:03;21.60;1.00
1381;DHT22;684;48.342;10.096;2023-04-15T10:22:31;21.10;1.00
1381;DHT22;684;48.342;10.096;2023-04-15T10:24:58;20.60;1.00
1381;DHT22;684;48.342;10.096;2023-04-15T10:27:26;20.40;1.00
1381;DHT22;684;48.342;10.096;2023-04-15T10:29:53;20.20;1.00
1381;DHT22;684;48.342;10.096;2023-04-15T10:32:23;20.00;1.00
1381;DHT22;684;48.342;10.096;2023-04-15T10:34:51;20.00;1.00
1381;DHT22;684;48.342;10.096;2023-04-15T10:37:22;20.10;1.00
1381;DHT22;684;48.342;10.096;2023-04-15T10:39:49;20.30;1.00
1381;DHT22;684;48.342;10.096;2023-04-15T10:42:17;20.70;1.00
1381;DHT22;684;48.342;10.096;2023-04-15T10:44:48;21.00;1.00
1381;DHT22;684;48.342;10.096;2023-04-15T10:47:17;21.10;1.00
1381;DHT22;684;48.342;10.096;2023-04-15T10:49:48;21.10;1.00
1381;DHT22;684;48.342;10.096;2023-04-15T10:52:16;21.00;1.00
1381;DHT22;684;48.342;10.096;2023-04-15T10:54:44;21.00;1.00
1381;DHT22;684;48.342;10.096;2023-04-15T10:57:16;21.00;1.00
1381;DHT22;684;48.342;10.096;2023-04-15T11:00:08;21.00;1.00
1381;DHT22;684;48.342;10.096;2023-04-15T11:02:44;21.10;1.00
1381;DHT22;684;48.342;10.096;2023-04-15T11:05:13;21.10;1.00
1381;DHT22;684;48.342;10.096;2023-04-15T11:07:47;21.20;1.00
1381;DHT22;684;48.342;10.096;2023-04-15T11:13:25;21.20;1.00
1381;DHT22;684;48.342;10.096;2023-04-15T11:16:00;21.00;1.00
1381;DHT22;684;48.342;10.096;2023-04-15T11:18:29;20.80;1.00
1381;DHT22;684;48.342;10.096;2023-04-15T11:21:00;20.60;1.00
1381;DHT22;684;48.342;10.096;2023-04-15T11:23:30;20.30;1.00
1381;DHT22;684;48.342;10.096;2023-04-15T11:25:58;20.10;1.00
1381;DHT22;684;48.342;10.096;2023-04-15T11:28:26;19.80;1.00
1381;DHT22;684;48.342;10.096;2023-04-15T11:30:53;19.60;1.00
1381;DHT22;684;48.342;10.096;2023-04-15T11:33:22;19.50;1.00
1381;DHT22;684;48.342;10.096;2023-04-15T11:35:50;19.30;1.00
1381;DHT22;684;48.342;10.096;2023-04-15T11:38:19;19.00;1.00
1381;DHT22;684;48.342;10.096;2023-04-15T11:40:47;18.80;1.00
1381;DHT22;684;48.342;10.096;2023-04-15T11:43:15;18.70;1.00
1381;DHT22;684;48.342;10.096;2023-04-15T11:45:51;18.70;1.00
1381;DHT22;684;48.342;10.096;2023-04-15T11:48:19;18.60;1.00
1381;DHT22;684;48.342;10.096;2023-04-15T11:50:52;18.60;1.00
1381;DHT22;684;48.342;10.096;2023-04-15T11:53:20;18.70;1.00
1381;DHT22;684;48.342;10.096;2023-04-15T11:55:49;18.70;1.00
1381;DHT22;684;48.342;10.096;2023-04-15T11:58:17;18.70;1.00
1381;DHT22;684;48.342;10.096;2023-04-15T12:00:48;18.70;1.00
1381;DHT22;684;48.342;10.096;2023-04-15T12:03:22;18.70;1.00
1381;DHT22;684;48.342;10.096;2023-04-15T12:06:02;18.60;1.00
1381;DHT22;684;48.342;10.096;2023-04-15T12:09:07;18.20;1.00
1381;DHT22;684;48.342;10.096;2023-04-15T12:11:37;17.70;1.70
1381;DHT22;684;48.342;10.096;2023-04-15T12:14:06;17.20;3.30
1381;DHT22;684;48.342;10.096;2023-04-15T12:16:35;17.00;4.80
1381;DHT22;684;48.342;10.096;2023-04-15T12:19:05;16.60;4.10
1381;DHT22;684;48.342;10.096;2023-04-15T12:21:34;16.30;5.40
1381;DHT22;684;48.342;10.096;2023-04-15T12:24:02;16.10;5.90
1381;DHT22;684;48.342;10.096;2023-04-15T12:26:34;16.00;6.60
1381;DHT22;684;48.342;10.096;2023-04-15T12:29:04;16.10;6.40
1381;DHT22;684;48.342;10.096;2023-04-15T12:31:31;16.10;6.20
1381;DHT22;684;48.342;10.096;2023-04-15T12:33:59;16.10;6.30
1381;DHT22;684;48.342;10.096;2023-04-15T12:36:26;16.20;6.20
1381;DHT22;684;48.342;10.096;2023-04-15T12:38:54;16.20;5.40
1381;DHT22;684;48.342;10.096;2023-04-15T12:41:21;16.10;5.10
1381;DHT22;684;48.342;10.096;2023-04-15T12:43:50;16.00;4.50
1381;DHT22;684;48.342;10.096;2023-04-15T12:46:17;15.90;4.80
1381;DHT22;684;48.342;10.096;2023-04-15T12:48:44;15.80;4.80
1381;DHT22;684;48.342;10.096;2023-04-15T12:51:11;15.60;4.50
1381;DHT22;684;48.342;10.096;2023-04-15T12:53:38;15.60;5.00
1381;DHT22;684;48.342;10.096;2023-04-15T12:56:05;15.50;6.10
1381;DHT22;684;48.342;10.096;2023-04-15T12:58:32;15.50;5.90
1381;DHT22;684;48.342;10.096;2023-04-15T13:01:00;15.60;6.30
1381;DHT22;684;48.342;10.096;2023-04-15T13:03:27;15.60;6.60
1381;DHT22;684;48.342;10.096;2023-04-15T13:05:53;15.60;6.10
1381;DHT22;684;48.342;10.096;2023-04-15T13:08:22;15.60;4.70
1381;DHT22;684;48.342;10.096;2023-04-15T13:10:49;15.60;4.90
1381;DHT22;684;48.342;10.096;2023-04-15T13:13:16;15.50;4.40
1381;DHT22;684;48.342;10.096;2023-04-15T13:15:43;15.50;4.70
1381;DHT22;684;48.342;10.096;2023-04-15T13:18:11;15.50;4.60
1381;DHT22;684;48.342;10.096;2023-04-15T13:20:38;15.50;4.70
1381;DHT22;684;48.342;10.096;2023-04-15T13:23:05;15.50;4.30
1381;DHT22;684;48.342;10.096;2023-04-15T13:25:32;15.50;4.40
1381;DHT22;684;48.342;10.096;2023-04-15T13:27:59;15.50;4.10
1381;DHT22;684;48.342;10.096;2023-04-15T13:30:26;15.50;4.00
1381;DHT22;684;48.342;10.096;2023-04-15T13:32:53;15.50;4.40
1381;DHT22;684;48.342;10.096;2023-04-15T13:35:21;15.40;4.30
1381;DHT22;684;48.342;10.096;2023-04-15T13:37:48;15.40;4.50
1381;DHT22;684;48.342;10.096;2023-04-15T13:40:15;15.40;5.30
1381;DHT22;684;48.342;10.096;2023-04-15T13:42:42;15.30;5.10
1381;DHT22;684;48.342;10.096;2023-04-15T13:45:09;15.20;5.00
1381;DHT22;684;48.342;10.096;2023-04-15T13:47:36;15.20;5.20
1381;DHT22;684;48.342;10.096;2023-04-15T13:52:32;14.90;6.60
1381;DHT22;684;48.342;10.096;2023-04-15T13:54:58;14.90;6.80
1381;DHT22;684;48.342;10.096;2023-04-15T13:57:25;14.80;7.00
1381;DHT22;684;48.342;10.096;2023-04-15T13:59:52;14.60;7.40
1381;DHT22;684;48.342;10.096;2023-04-15T14:02:20;14.50;8.00
1381;DHT22;684;48.342;10.096;2023-04-15T14:04:47;14.40;8.70
1381;DHT22;684;48.342;10.096;2023-04-15T14:07:14;14.30;9.20
1381;DHT22;684;48.342;10.096;2023-04-15T14:09:42;14.10;9.00
1381;DHT22;684;48.342;10.096;2023-04-15T14:12:09;14.00;10.40
1381;DHT22;684;48.342;10.096;2023-04-15T14:14:35;13.90;10.70
1381;DHT22;684;48.342;10.096;2023-04-15T14:17:02;13.80;11.90
1381;DHT22;684;48.342;10.096;2023-04-15T14:19:30;13.60;11.80
1381;DHT22;684;48.342;10.096;2023-04-15T14:21:57;13.50;12.50
1381;DHT22;684;48.342;10.096;2023-04-15T14:24:24;13.50;12.70
1381;DHT22;684;48.342;10.096;2023-04-15T14:26:52;13.40;13.30
1381;DHT22;684;48.342;10.096;2023-04-15T14:29:19;13.30;14.10
1381;DHT22;684;48.342;10.096;2023-04-15T14:31:46;13.30;14.60
1381;DHT22;684;48.342;10.096;2023-04-15T14:34:13;13.20;14.80
1381;DHT22;684;48.342;10.096;2023-04-15T14:36:40;13.10;14.70
1381;DHT22;684;48.342;10.096;2023-04-15T14:39:07;13.00;15.10
1381;DHT22;684;48.342;10.096;2023-04-15T14:41:34;12.90;14.80
1381;DHT22;684;48.342;10.096;2023-04-15T14:44:02;12.70;15.30
1381;DHT22;684;48.342;10.096;2023-04-15T14:46:29;12.60;16.00
1381;DHT22;684;48.342;10.096;2023-04-15T14:48:56;12.40;16.40
1381;DHT22;684;48.342;10.096;2023-04-15T14:51:23;12.40;16.70
1381;DHT22;684;48.342;10.096;2023-04-15T14:53:50;12.30;16.50
1381;DHT22;684;48.342;10.096;2023-04-15T14:56:17;12.20;16.60
1381;DHT22;684;48.342;10.096;2023-04-15T14:58:44;12.20;17.00
1381;DHT22;684;48.342;10.096;2023-04-15T15:01:12;12.10;16.60
1381;DHT22;684;48.342;10.096;2023-04-15T15:03:39;12.10;16.50
1381;DHT22;684;48.342;10.096;2023-04-15T15:06:06;12.00;16.50
1381;DHT22;684;48.342;10.096;2023-04-15T15:08:33;11.90;16.70
1381;DHT22;684;48.342;10.096;2023-04-15T15:11:01;11.90;16.80
1381;DHT22;684;48.342;10.096;2023-04-15T15:13:28;11.90;16.70
1381;DHT22;684;48.342;10.096;2023-04-15T15:15:56;11.90;16.70
1381;DHT22;684;48.342;10.096;2023-04-15T15:18:24;11.90;16.50
1381;DHT22;684;48.342;10.096;2023-04-15T15:20:51;11.90;16.70
1381;DHT22;684;48.342;10.096;2023-04-15T15:23:18;11.90;16.40
1381;DHT22;684;48.342;10.096;2023-04-15T15:25:45;11.90;16.40
1381;DHT22;684;48.342;10.096;2023-04-15T15:28:12;11.90;15.20
1381;DHT22;684;48.342;10.096;2023-04-15T15:30:39;11.80;14.50
1381;DHT22;684;48.342;10.096;2023-04-15T15:33:06;11.70;14.50
1381;DHT22;684;48.342;10.096;2023-04-15T15:35:34;11.70;14.90
1381;DHT22;684;48.342;10.096;2023-04-15T15:38:01;11.70;14.70
1381;DHT22;684;48.342;10.096;2023-04-15T15:40:27;11.70;14.70
1381;DHT22;684;48.342;10.096;2023-04-15T15:42:54;11.60;14.60
1381;DHT22;684;48.342;10.096;2023-04-15T15:45:21;11.60;14.60
1381;DHT22;684;48.342;10.096;2023-04-15T15:47:47;11.60;14.40
1381;DHT22;684;48.342;10.096;2023-04-15T15:50:14;11.50;14.00
1381;DHT22;684;48.342;10.096;2023-04-15T15:52:42;11.50;14.00
1381;DHT22;684;48.342;10.096;2023-04-15T15:55:09;11.40;14.20
1381;DHT22;684;48.342;10.096;2023-04-15T15:57:36;11.30;14.30
1381;DHT22;684;48.342;10.096;2023-04-15T16:00:03;11.30;14.20
1381;DHT22;684;48.342;10.096;2023-04-15T16:02:30;11.30;14.20
1381;DHT22;684;48.342;10.096;2023-04-15T16:04:57;11.20;14.10
1381;DHT22;684;48.342;10.096;2023-04-15T16:07:24;11.20;14.30
1381;DHT22;684;48.342;10.096;2023-04-15T16:09:52;11.10;14.50
1381;DHT22;684;48.342;10.096;2023-04-15T16:12:19;11.10;14.70
1381;DHT22;684;48.342;10.096;2023-04-15T16:14:46;11.10;14.40
1381;DHT22;684;48.342;10.096;2023-04-15T16:17:12;11.10;14.20
1381;DHT22;684;48.342;10.096;2023-04-15T16:19:39;11.10;14.20
1381;DHT22;684;48.342;10.096;2023-04-15T16:22:06;11.00;14.20